This is the latest recevied weather packets stored in our database for station/object KE8ZLU. If no packets are shown the sender has not sent any weather packets the latest 10 day(s).
| Time | Temp. | Humidity | Pressure | Rain* | Wind** | Luminosity | Snow |
|---|---|---|---|---|---|---|---|
| 1777753497 | 7.78° C | 49% | 1017.9 hPa | 0 mm | - | 163 W/m² | - |
| 1777753195 | 8.33° C | 48% | 1018 hPa | 0 mm | - | 184 W/m² | - |
| 1777752890 | 8.33° C | 46% | 1017.9 hPa | 0 mm | - | 674 W/m² | - |
| 1777752587 | 7.78° C | 50% | 1018 hPa | 0 mm | - | 343 W/m² | - |
| 1777752283 | 7.78° C | 48% | 1018.1 hPa | 0 mm | - | 170 W/m² | - |
| 1777751981 | 7.78° C | 48% | 1018.1 hPa | 0 mm | - | 170 W/m² | - |
| 1777751678 | 7.78° C | 47% | 1018.2 hPa | 0 mm | - | 248 W/m² | - |
| 1777751374 | 7.78° C | 47% | 1018.1 hPa | 0 mm | - | 526 W/m² | - |
| 1777751072 | 7.78° C | 47% | 1018.2 hPa | 0 mm | - | 526 W/m² | - |
| 1777750767 | 7.78° C | 47% | 1018.5 hPa | 0 mm | - | 526 W/m² | - |
| 1777750465 | 7.78° C | 52% | 1018.5 hPa | 0 mm | - | 225 W/m² | - |
| 1777750160 | 7.78° C | 52% | 1018.4 hPa | 0 mm | - | 225 W/m² | - |
| 1777749857 | 7.78° C | 52% | 1018.6 hPa | 0 mm | - | 225 W/m² | - |
| 1777749554 | 7.78° C | 49% | 1018.5 hPa | 0 mm | - | 203 W/m² | - |
| 1777749252 | 8.33° C | 46% | 1018.6 hPa | 0 mm | - | 303 W/m² | - |
| 1777748949 | 8.33° C | 46% | 1018.8 hPa | 0 mm | - | 303 W/m² | - |
| 1777748646 | 7.78° C | 48% | 1018.7 hPa | 0 mm | - | 504 W/m² | - |
| 1777748343 | 8.33° C | 49% | 1018.7 hPa | 0 mm | - | 529 W/m² | - |
| 1777748038 | 7.78° C | 47% | 1018.8 hPa | 0 mm | - | 1005 W/m² | - |
| 1777747735 | 7.22° C | 51% | 1018.9 hPa | 0 mm | - | 334 W/m² | - |
| 1777747430 | 7.22° C | 51% | 1018.8 hPa | 0 mm | - | 319 W/m² | - |
| 1777747128 | 7.22° C | 48% | 1018.9 hPa | 0 mm | - | 247 W/m² | - |
| 1777746823 | 7.78° C | 48% | 1018.9 hPa | 0 mm | - | 289 W/m² | - |
| 1777746518 | 6.67° C | 48% | 1018.9 hPa | 0 mm | - | 262 W/m² | - |
| 1777746214 | 6.67° C | 48% | 1018.8 hPa | 0 mm | - | 262 W/m² | - |
* Rain latest hour (hover to see other rain measurements)
** Current wind speed in m/s (hover to see current wind gust speed)